Time;durP1;ratioP1;P1;durP2;ratioP2;P2;SDS_P1;SDS_P2;PMS_P1;PMS_P2;Temp;Humidity;BMP_temperature;BMP_pressure;BME280_temperature;BME280_humidity;BME280_pressure;Samples;Min_cycle;Max_cycle;Signal;HPM_P1;HPM_P2
2021/12/07 00:02:10;;;;;;;1.33;0.60;;;;;;;;;;5090724;28;20106;-87
2021/12/07 00:04:57;;;;;;;1.50;0.68;;;;;;;;;;5093303;28;20505;-86
2021/12/07 00:07:44;;;;;;;1.45;0.77;;;;;;;;;;5080687;28;20028;-85
2021/12/07 00:10:31;;;;;;;1.02;0.57;;;;;;;;;;5076051;28;20023;-84
2021/12/07 00:13:19;;;;;;;2.33;0.65;;;;;;;;;;5076670;28;20341;-87
2021/12/07 00:16:07;;;;;;;1.52;0.70;;;;;;;;;;5084004;28;20503;-84
2021/12/07 00:18:55;;;;;;;1.85;0.73;;;;;;;;;;5093923;28;20032;-84
2021/12/07 00:21:42;;;;;;;1.17;0.60;;;;;;;;;;5081594;28;20040;-84
2021/12/07 00:24:29;;;;;;;2.47;0.80;;;;;;;;;;5100274;28;20036;-86
2021/12/07 00:27:18;;;;;;;2.05;0.70;;;;;;;;;;5085706;28;20028;-86
2021/12/07 00:30:06;;;;;;;1.00;0.60;;;;;;;;;;5098374;28;20075;-82
2021/12/07 00:33:07;;;;;;;2.60;0.55;;;;;;;;;;5100358;28;20048;-86
2021/12/07 00:35:54;;;;;;;2.08;0.60;;;;;;;;;;5103093;28;20028;-85
2021/12/07 00:38:41;;;;;;;0.75;0.70;;;;;;;;;;5091408;28;20038;-85
2021/12/07 00:41:28;;;;;;;0.75;0.50;;;;;;;;;;5094513;28;20054;-86
2021/12/07 00:44:15;;;;;;;0.88;0.50;;;;;;;;;;5090492;28;20027;-86
2021/12/07 00:47:02;;;;;;;0.47;0.32;;;;;;;;;;5079954;28;20048;-85
2021/12/07 00:49:49;;;;;;;0.90;0.60;;;;;;;;;;5083630;28;20024;-82
2021/12/07 00:52:36;;;;;;;1.10;0.60;;;;;;;;;;5089949;28;20786;-86
2021/12/07 00:55:25;;;;;;;1.20;0.70;;;;;;;;;;5082105;28;20403;-87
2021/12/07 00:58:17;;;;;;;0.68;0.40;;;;;;;;;;5076012;28;20043;-86
2021/12/07 01:01:10;;;;;;;1.40;0.70;;;;;;;;;;5075563;28;20186;-87
2021/12/07 01:03:56;;;;;;;1.20;0.60;;;;;;;;;;5084518;28;20491;-87
2021/12/07 01:24:39;;;;;;;1.15;0.63;;;;;;;;;;5069722;28;20500;-84
2021/12/07 01:25:07;;;;;;;1.08;0.43;;;;;;;;;;5090931;28;20051;-87
2021/12/07 01:27:57;;;;;;;1.15;0.50;;;;;;;;;;5081393;28;20024;-88
2021/12/07 01:37:28;;;;;;;3.47;0.50;;;;;;;;;;5087193;28;20039;-87
2021/12/07 01:40:35;;;;;;;1.17;0.60;;;;;;;;;;5080127;28;20027;-87
2021/12/07 02:01:25;;;;;;;0.60;0.47;;;;;;;;;;5089104;28;20040;-85
2021/12/07 02:04:12;;;;;;;0.70;0.45;;;;;;;;;;5070757;28;20046;-83
2021/12/07 02:06:59;;;;;;;1.02;0.50;;;;;;;;;;5083265;28;20110;-83
2021/12/07 02:09:51;;;;;;;0.90;0.70;;;;;;;;;;5074484;28;20028;-84
2021/12/07 02:12:48;;;;;;;;;;;;;;;;;;5082130;28;20047;-84
2021/12/07 02:15:34;;;;;;;1.15;0.60;;;;;;;;;;5091208;28;19908;-84
2021/12/07 02:18:21;;;;;;;0.55;0.50;;;;;;;;;;5077113;28;20032;-84
2021/12/07 02:21:23;;;;;;;1.67;0.50;;;;;;;;;;5077622;28;20036;-83
2021/12/07 02:24:10;;;;;;;0.65;0.40;;;;;;;;;;5090077;28;20047;-83
2021/12/07 02:26:56;;;;;;;0.70;0.50;;;;;;;;;;5086694;28;20573;-84
2021/12/07 02:29:43;;;;;;;0.73;0.40;;;;;;;;;;5086598;28;20044;-85
2021/12/07 02:32:30;;;;;;;0.60;0.50;;;;;;;;;;5076697;28;20040;-86
2021/12/07 02:35:22;;;;;;;0.90;0.50;;;;;;;;;;5067968;28;20046;-85
2021/12/07 02:38:09;;;;;;;0.70;0.50;;;;;;;;;;5089005;28;20020;-85
2021/12/07 02:40:56;;;;;;;0.93;0.60;;;;;;;;;;5076117;28;20503;-85
2021/12/07 02:43:44;;;;;;;1.10;0.60;;;;;;;;;;5083301;28;20044;-84
2021/12/07 02:46:30;;;;;;;1.08;0.60;;;;;;;;;;5090674;28;20032;-85
2021/12/07 02:49:19;;;;;;;0.68;0.50;;;;;;;;;;5077320;28;20035;-84
2021/12/07 02:52:06;;;;;;;0.68;0.40;;;;;;;;;;5090988;28;20039;-85
2021/12/07 02:54:53;;;;;;;0.95;0.40;;;;;;;;;;5083782;28;20038;-84
2021/12/07 02:57:42;;;;;;;0.80;0.50;;;;;;;;;;5077032;28;20036;-84
2021/12/07 03:00:37;;;;;;;0.70;0.43;;;;;;;;;;5087466;28;20043;-85
2021/12/07 03:03:24;;;;;;;0.40;0.40;;;;;;;;;;5094115;28;20101;-85
2021/12/07 03:27:01;;;;;;;1.45;0.70;;;;;;;;;;5102063;28;20038;-86
2021/12/07 03:29:48;;;;;;;0.60;0.40;;;;;;;;;;5108199;28;20437;-86
2021/12/07 03:32:35;;;;;;;1.17;0.65;;;;;;;;;;5099127;28;20036;-85
2021/12/07 03:35:22;;;;;;;1.05;0.60;;;;;;;;;;5113659;28;20029;-87
2021/12/07 03:38:09;;;;;;;0.60;0.40;;;;;;;;;;5114122;28;20020;-87
2021/12/07 03:40:56;;;;;;;0.82;0.57;;;;;;;;;;5089826;28;20038;-87
2021/12/07 03:43:43;;;;;;;0.47;0.40;;;;;;;;;;5100157;28;20045;-85
2021/12/07 03:46:29;;;;;;;0.70;0.50;;;;;;;;;;5064638;28;20395;-86
2021/12/07 03:49:16;;;;;;;1.02;0.63;;;;;;;;;;5080400;28;20020;-86
2021/12/07 03:52:03;;;;;;;0.93;0.60;;;;;;;;;;5100079;28;20034;-86
2021/12/07 03:54:50;;;;;;;0.65;0.30;;;;;;;;;;5097314;28;20028;-86
2021/12/07 03:57:37;;;;;;;0.98;0.50;;;;;;;;;;5106841;28;20030;-87
2021/12/07 04:00:24;;;;;;;0.30;0.30;;;;;;;;;;5081978;28;20036;-86
2021/12/07 04:03:14;;;;;;;0.98;0.50;;;;;;;;;;5093568;28;20040;-87
2021/12/07 04:06:04;;;;;;;0.85;0.60;;;;;;;;;;5094655;28;20040;-86
2021/12/07 04:08:51;;;;;;;1.02;0.50;;;;;;;;;;5086112;28;20036;-86
2021/12/07 04:11:38;;;;;;;0.52;0.40;;;;;;;;;;5078525;28;20020;-86
2021/12/07 04:14:24;;;;;;;1.20;0.60;;;;;;;;;;5082704;28;20030;-87
2021/12/07 04:17:11;;;;;;;0.68;0.50;;;;;;;;;;5092221;28;20038;-84
2021/12/07 04:19:58;;;;;;;0.50;0.50;;;;;;;;;;5089825;28;20035;-84
2021/12/07 04:22:45;;;;;;;0.55;0.38;;;;;;;;;;5083089;28;20048;-88
2021/12/07 04:25:32;;;;;;;1.40;0.55;;;;;;;;;;5081455;28;20024;-90
2021/12/07 04:28:18;;;;;;;1.35;0.65;;;;;;;;;;5083677;28;20042;-89
2021/12/07 04:31:06;;;;;;;1.02;0.50;;;;;;;;;;5075384;28;20216;-87
2021/12/07 04:33:52;;;;;;;1.17;0.68;;;;;;;;;;5074199;28;20051;-89
2021/12/07 04:36:39;;;;;;;0.40;0.40;;;;;;;;;;5087204;28;20024;-88
2021/12/07 04:39:26;;;;;;;0.55;0.43;;;;;;;;;;5087846;28;20039;-88
2021/12/07 04:42:13;;;;;;;0.52;0.40;;;;;;;;;;5086826;28;20028;-88
2021/12/07 04:45:04;;;;;;;1.13;0.70;;;;;;;;;;5088286;28;20032;-88
2021/12/07 05:00:00;;;;;;;0.75;0.40;;;;;;;;;;5084700;28;20032;-90
2021/12/07 05:02:54;;;;;;;1.92;0.80;;;;;;;;;;5083325;28;20059;-88
2021/12/07 05:05:54;;;;;;;2.58;0.80;;;;;;;;;;5071768;28;20031;-91
2021/12/07 05:08:47;;;;;;;1.60;0.80;;;;;;;;;;5090573;28;20098;-86
2021/12/07 05:14:44;;;;;;;3.72;1.25;;;;;;;;;;5085413;28;20381;-87
2021/12/07 05:18:10;;;;;;;2.53;0.90;;;;;;;;;;5085942;28;20028;-87
2021/12/07 05:24:07;;;;;;;1.17;0.60;;;;;;;;;;5084828;28;20419;-87
2021/12/07 05:39:15;;;;;;;1.65;0.85;;;;;;;;;;5083990;28;20030;-92
2021/12/07 05:42:02;;;;;;;3.58;1.10;;;;;;;;;;5080828;28;20028;-91
2021/12/07 05:44:48;;;;;;;0.90;0.70;;;;;;;;;;5087174;28;20032;-88
2021/12/07 05:47:35;;;;;;;1.00;0.70;;;;;;;;;;5086251;28;20383;-88
2021/12/07 05:50:24;;;;;;;1.30;0.60;;;;;;;;;;5082817;28;20028;-88
2021/12/07 05:53:11;;;;;;;4.10;0.85;;;;;;;;;;5069977;28;20016;-88
2021/12/07 05:55:59;;;;;;;1.60;0.65;;;;;;;;;;5089814;28;20042;-88
2021/12/07 05:58:46;;;;;;;1.48;0.70;;;;;;;;;;5086963;28;20040;-88
2021/12/07 06:01:32;;;;;;;1.65;0.85;;;;;;;;;;5090512;28;20024;-88
2021/12/07 06:04:19;;;;;;;1.80;0.98;;;;;;;;;;5092439;28;20044;-90
2021/12/07 06:07:08;;;;;;;1.23;0.80;;;;;;;;;;5083331;28;20403;-89
2021/12/07 06:09:54;;;;;;;1.77;0.75;;;;;;;;;;5085166;28;20411;-88
2021/12/07 06:12:41;;;;;;;1.15;0.70;;;;;;;;;;5092565;28;20024;-88
2021/12/07 06:15:31;;;;;;;1.10;0.60;;;;;;;;;;5064494;28;20032;-89
2021/12/07 06:18:18;;;;;;;1.70;0.60;;;;;;;;;;5076584;28;20387;-91
2021/12/07 06:21:05;;;;;;;2.00;0.90;;;;;;;;;;5087896;28;20069;-90
2021/12/07 06:23:52;;;;;;;2.05;0.60;;;;;;;;;;5071323;28;20043;-91
2021/12/07 06:26:38;;;;;;;2.30;0.75;;;;;;;;;;5067543;28;20283;-90
2021/12/07 06:29:25;;;;;;;1.10;0.60;;;;;;;;;;5076249;28;20035;-89
2021/12/07 06:32:12;;;;;;;1.73;0.88;;;;;;;;;;5091008;28;20047;-89
2021/12/07 06:34:59;;;;;;;0.95;0.55;;;;;;;;;;5077778;28;20146;-88
2021/12/07 06:37:45;;;;;;;2.10;0.95;;;;;;;;;;5086637;28;20024;-88
2021/12/07 06:40:32;;;;;;;0.75;0.50;;;;;;;;;;5089390;28;20032;-85
2021/12/07 06:43:21;;;;;;;2.55;0.73;;;;;;;;;;5091861;28;20040;-88
2021/12/07 06:46:07;;;;;;;1.50;0.60;;;;;;;;;;5093000;28;20688;-91
2021/12/07 06:48:54;;;;;;;0.82;0.60;;;;;;;;;;5076307;28;20039;-89
2021/12/07 06:51:41;;;;;;;1.85;0.75;;;;;;;;;;5091930;28;20032;-89
2021/12/07 06:54:27;;;;;;;1.48;0.63;;;;;;;;;;5080903;28;20024;-89
2021/12/07 06:57:14;;;;;;;3.28;0.68;;;;;;;;;;5089655;28;20024;-90
2021/12/07 07:00:01;;;;;;;0.77;0.50;;;;;;;;;;5066120;28;20036;-90
2021/12/07 07:02:48;;;;;;;1.35;0.60;;;;;;;;;;5082434;28;20519;-89
2021/12/07 07:05:34;;;;;;;1.20;0.60;;;;;;;;;;5094748;28;20395;-89
2021/12/07 07:08:21;;;;;;;1.40;0.80;;;;;;;;;;5094248;28;20036;-89
2021/12/07 07:11:08;;;;;;;1.17;0.73;;;;;;;;;;5096749;28;20353;-89
2021/12/07 07:13:55;;;;;;;0.70;0.40;;;;;;;;;;5095539;28;20028;-89
2021/12/07 07:16:42;;;;;;;1.45;0.60;;;;;;;;;;5097473;28;20035;-89
2021/12/07 07:19:29;;;;;;;2.92;0.60;;;;;;;;;;5098774;28;20028;-89
2021/12/07 07:22:15;;;;;;;0.73;0.60;;;;;;;;;;5100401;28;20055;-89
2021/12/07 07:25:03;;;;;;;1.00;0.60;;;;;;;;;;5097375;28;20021;-88
2021/12/07 07:27:50;;;;;;;0.77;0.50;;;;;;;;;;5097204;28;20043;-88
2021/12/07 07:30:37;;;;;;;1.25;0.45;;;;;;;;;;5089976;28;20044;-88
2021/12/07 07:33:24;;;;;;;1.60;0.60;;;;;;;;;;5077220;28;20028;-88
2021/12/07 07:36:11;;;;;;;1.30;0.63;;;;;;;;;;5111931;28;20043;-87
2021/12/07 07:38:58;;;;;;;1.77;0.75;;;;;;;;;;5113554;28;20513;-87
2021/12/07 07:41:44;;;;;;;0.77;0.52;;;;;;;;;;5111015;28;20030;-87
2021/12/07 07:44:31;;;;;;;0.98;0.65;;;;;;;;;;5096548;28;20032;-88
2021/12/07 07:47:18;;;;;;;1.17;0.70;;;;;;;;;;5104645;28;20036;-89
2021/12/07 07:50:06;;;;;;;1.75;0.60;;;;;;;;;;5108945;28;20032;-90
2021/12/07 07:52:53;;;;;;;0.93;0.60;;;;;;;;;;5103631;28;20035;-88
2021/12/07 07:55:42;;;;;;;1.05;0.60;;;;;;;;;;5100847;28;20044;-89
2021/12/07 07:58:29;;;;;;;1.20;0.95;;;;;;;;;;5090834;28;20024;-89
2021/12/07 08:01:16;;;;;;;2.08;0.70;;;;;;;;;;5089548;28;20430;-87
2021/12/07 08:04:04;;;;;;;1.15;0.55;;;;;;;;;;5089571;28;20044;-87
2021/12/07 08:06:51;;;;;;;1.30;0.60;;;;;;;;;;5086436;28;20028;-86
2021/12/07 08:09:37;;;;;;;0.88;0.60;;;;;;;;;;5090692;28;20036;-89
2021/12/07 08:12:24;;;;;;;1.85;0.50;;;;;;;;;;5083935;28;20035;-87
2021/12/07 08:15:11;;;;;;;1.13;0.60;;;;;;;;;;5090064;28;20028;-87
2021/12/07 08:17:58;;;;;;;1.30;0.70;;;;;;;;;;5092576;28;20046;-87
2021/12/07 08:20:45;;;;;;;1.35;0.60;;;;;;;;;;5089997;28;20024;-87
2021/12/07 08:23:32;;;;;;;1.15;0.75;;;;;;;;;;5082431;28;20111;-87
2021/12/07 08:26:20;;;;;;;1.00;0.70;;;;;;;;;;5093594;28;20392;-88
2021/12/07 08:29:07;;;;;;;0.85;0.60;;;;;;;;;;5092796;28;20493;-86
2021/12/07 08:31:53;;;;;;;1.55;0.90;;;;;;;;;;5088101;28;20051;-87
2021/12/07 08:34:40;;;;;;;1.48;0.70;;;;;;;;;;5088927;28;20376;-88
2021/12/07 08:37:27;;;;;;;1.02;0.60;;;;;;;;;;5090474;28;20040;-87
2021/12/07 08:40:15;;;;;;;0.90;0.52;;;;;;;;;;5083963;28;20039;-87
2021/12/07 08:43:02;;;;;;;0.75;0.50;;;;;;;;;;5084617;28;20040;-88
2021/12/07 08:45:50;;;;;;;1.02;0.57;;;;;;;;;;5083368;28;20484;-89
2021/12/07 08:48:36;;;;;;;0.77;0.60;;;;;;;;;;5083667;28;20024;-88
2021/12/07 08:51:23;;;;;;;1.90;0.70;;;;;;;;;;5087539;28;20043;-88
2021/12/07 09:00:29;;;;;;;1.40;0.70;;;;;;;;;;5093602;28;20035;-89
2021/12/07 09:03:16;;;;;;;2.35;0.70;;;;;;;;;;5093608;28;20033;-88
2021/12/07 09:06:03;;;;;;;1.35;0.73;;;;;;;;;;5093051;28;20510;-90
2021/12/07 09:08:50;;;;;;;2.35;0.70;;;;;;;;;;5083483;28;20450;-89
2021/12/07 09:11:36;;;;;;;0.85;0.57;;;;;;;;;;5084368;28;20028;-88
2021/12/07 09:14:24;;;;;;;1.52;0.60;;;;;;;;;;5088431;28;20560;-89
2021/12/07 09:17:11;;;;;;;1.80;0.80;;;;;;;;;;5095481;28;20036;-88
2021/12/07 09:19:58;;;;;;;1.20;0.60;;;;;;;;;;5092074;28;20032;-89
2021/12/07 09:22:45;;;;;;;1.25;0.80;;;;;;;;;;5092958;28;20032;-89
2021/12/07 09:25:32;;;;;;;1.00;0.63;;;;;;;;;;5068034;28;20028;-88
2021/12/07 09:28:19;;;;;;;0.60;0.55;;;;;;;;;;5077276;28;20403;-89
2021/12/07 09:31:06;;;;;;;1.70;0.68;;;;;;;;;;5090186;28;20039;-88
2021/12/07 09:33:54;;;;;;;1.38;0.77;;;;;;;;;;5084972;28;20032;-88
2021/12/07 09:36:42;;;;;;;2.40;0.95;;;;;;;;;;5092454;28;20036;-88
2021/12/07 09:39:28;;;;;;;1.45;0.70;;;;;;;;;;5083317;28;20038;-88
2021/12/07 09:42:15;;;;;;;2.28;0.70;;;;;;;;;;5092048;28;20024;-88
2021/12/07 09:45:03;;;;;;;1.05;0.60;;;;;;;;;;5074842;28;20036;-87
2021/12/07 09:47:50;;;;;;;0.95;0.65;;;;;;;;;;5088750;28;20051;-88
2021/12/07 09:50:38;;;;;;;1.30;0.63;;;;;;;;;;5080288;28;20035;-89
2021/12/07 09:53:25;;;;;;;1.50;0.90;;;;;;;;;;5090030;28;20031;-89
2021/12/07 09:56:12;;;;;;;1.30;0.80;;;;;;;;;;5092826;28;20043;-88
2021/12/07 09:58:59;;;;;;;1.23;0.52;;;;;;;;;;5091985;28;20028;-89
2021/12/07 10:01:46;;;;;;;1.33;0.70;;;;;;;;;;5088322;28;20036;-89
2021/12/07 10:04:33;;;;;;;1.05;0.57;;;;;;;;;;5076056;28;20605;-88
2021/12/07 10:07:20;;;;;;;2.15;1.00;;;;;;;;;;5089094;28;20028;-90
2021/12/07 10:10:17;;;;;;;1.83;0.85;;;;;;;;;;5076812;28;20051;-88
2021/12/07 10:13:05;;;;;;;0.88;0.63;;;;;;;;;;5093112;28;20024;-89
2021/12/07 10:15:53;;;;;;;1.00;0.70;;;;;;;;;;5063755;28;20040;-88
2021/12/07 10:18:42;;;;;;;0.88;0.60;;;;;;;;;;5063388;28;20027;-89
2021/12/07 10:21:31;;;;;;;1.23;0.60;;;;;;;;;;5075641;28;20035;-89
2021/12/07 10:24:22;;;;;;;1.20;0.65;;;;;;;;;;5081959;28;20055;-89
2021/12/07 10:27:09;;;;;;;1.05;0.63;;;;;;;;;;5076517;28;20038;-89
2021/12/07 10:29:55;;;;;;;1.33;0.80;;;;;;;;;;5079580;28;20043;-89
2021/12/07 10:32:42;;;;;;;0.90;0.57;;;;;;;;;;5085171;28;20048;-88
2021/12/07 10:35:31;;;;;;;1.17;0.70;;;;;;;;;;5090946;28;20035;-89
2021/12/07 10:38:18;;;;;;;1.05;0.70;;;;;;;;;;5088860;28;20036;-89
2021/12/07 10:41:18;;;;;;;1.00;0.70;;;;;;;;;;5071007;28;20031;-88
2021/12/07 10:44:07;;;;;;;1.00;0.50;;;;;;;;;;5080782;28;20042;-88
2021/12/07 10:46:56;;;;;;;0.95;0.63;;;;;;;;;;5093045;28;20035;-88
2021/12/07 10:49:43;;;;;;;1.80;0.85;;;;;;;;;;5086453;28;20044;-87
2021/12/07 10:52:33;;;;;;;1.27;0.70;;;;;;;;;;5094272;28;20043;-89
2021/12/07 10:55:25;;;;;;;1.02;0.60;;;;;;;;;;5074170;28;20402;-87
2021/12/07 10:58:13;;;;;;;1.63;0.70;;;;;;;;;;5082415;28;20038;-88
2021/12/07 11:01:00;;;;;;;1.70;0.95;;;;;;;;;;5093155;28;20035;-87
2021/12/07 11:03:47;;;;;;;1.17;0.68;;;;;;;;;;5080573;28;20048;-88
2021/12/07 11:06:33;;;;;;;1.13;0.70;;;;;;;;;;5093907;28;20027;-89
2021/12/07 11:09:20;;;;;;;2.00;0.80;;;;;;;;;;5082457;28;20036;-88
2021/12/07 11:12:07;;;;;;;1.55;0.70;;;;;;;;;;5072075;28;20040;-86
2021/12/07 11:14:58;;;;;;;1.90;1.10;;;;;;;;;;5077010;28;20033;-86
2021/12/07 11:17:45;;;;;;;1.47;0.87;;;;;;;;;;5094244;28;20448;-87
2021/12/07 11:20:32;;;;;;;2.47;1.00;;;;;;;;;;5093721;28;20433;-87
2021/12/07 11:23:21;;;;;;;2.42;1.02;;;;;;;;;;5096050;28;20044;-88
2021/12/07 11:32:07;;;;;;;2.05;1.05;;;;;;;;;;5093846;28;20123;-88
2021/12/07 11:34:54;;;;;;;3.20;1.63;;;;;;;;;;5092298;28;20031;-88
2021/12/07 11:37:41;;;;;;;2.20;1.40;;;;;;;;;;5075991;28;20521;-88
2021/12/07 11:40:30;;;;;;;4.63;1.70;;;;;;;;;;5089725;28;20038;-88
2021/12/07 11:43:17;;;;;;;2.30;1.00;;;;;;;;;;5092496;28;20037;-87
2021/12/07 11:46:17;;;;;;;4.80;1.65;;;;;;;;;;5089808;28;20042;-87
2021/12/07 11:49:13;;;;;;;2.72;1.15;;;;;;;;;;5091260;28;20032;-87
2021/12/07 11:52:01;;;;;;;3.15;1.40;;;;;;;;;;5084743;28;20039;-87
2021/12/07 11:54:48;;;;;;;4.85;1.58;;;;;;;;;;5093571;28;20039;-87
2021/12/07 11:57:35;;;;;;;2.42;1.00;;;;;;;;;;5078900;28;20032;-87
2021/12/07 12:00:25;;;;;;;2.00;1.10;;;;;;;;;;5071775;28;20050;-87
2021/12/07 12:03:12;;;;;;;2.15;1.27;;;;;;;;;;5085474;28;20033;-87
2021/12/07 12:05:59;;;;;;;3.25;0.98;;;;;;;;;;5093138;28;20032;-88
2021/12/07 12:08:46;;;;;;;2.90;1.02;;;;;;;;;;5077789;28;20036;-88
2021/12/07 12:11:51;;;;;;;1.60;0.77;;;;;;;;;;5078635;28;20513;-87
2021/12/07 12:14:51;;;;;;;1.80;0.88;;;;;;;;;;5091751;28;20046;-87
2021/12/07 12:17:46;;;;;;;3.08;1.05;;;;;;;;;;5091920;28;20039;-87
2021/12/07 12:20:42;;;;;;;3.38;1.20;;;;;;;;;;5088617;28;20027;-88
2021/12/07 12:23:38;;;;;;;2.70;1.20;;;;;;;;;;5090554;28;20047;-89
2021/12/07 12:26:26;;;;;;;4.97;1.50;;;;;;;;;;5087791;28;20027;-89
2021/12/07 12:29:18;;;;;;;2.67;1.20;;;;;;;;;;5089193;28;20035;-89
2021/12/07 12:32:05;;;;;;;1.63;1.00;;;;;;;;;;5088402;28;20507;-89
2021/12/07 12:34:52;;;;;;;2.85;1.20;;;;;;;;;;5091788;28;20138;-88
2021/12/07 12:37:44;;;;;;;2.60;1.23;;;;;;;;;;5090147;28;20030;-88
2021/12/07 12:40:32;;;;;;;3.85;1.23;;;;;;;;;;5092464;28;20040;-88
2021/12/07 12:43:31;;;;;;;1.95;1.05;;;;;;;;;;5092845;28;20024;-88
2021/12/07 12:46:19;;;;;;;2.20;1.10;;;;;;;;;;5079775;28;20028;-89
2021/12/07 12:49:12;;;;;;;2.20;1.10;;;;;;;;;;5088053;28;20038;-88
2021/12/07 12:51:59;;;;;;;1.25;0.80;;;;;;;;;;5087297;28;20506;-88
2021/12/07 12:54:47;;;;;;;3.97;1.15;;;;;;;;;;5083107;28;20038;-88
2021/12/07 12:57:48;;;;;;;2.40;1.00;;;;;;;;;;5092788;28;20032;-88
2021/12/07 13:00:53;;;;;;;3.40;1.20;;;;;;;;;;5081273;28;20523;-88
2021/12/07 13:03:41;;;;;;;2.58;1.00;;;;;;;;;;5089168;28;20446;-88
2021/12/07 13:06:40;;;;;;;2.17;1.10;;;;;;;;;;5092656;28;20509;-87
2021/12/07 13:09:30;;;;;;;2.70;1.10;;;;;;;;;;5092988;28;20139;-88
2021/12/07 13:12:27;;;;;;;2.13;0.98;;;;;;;;;;5095674;28;20024;-87
2021/12/07 13:15:16;;;;;;;1.60;0.90;;;;;;;;;;5096578;28;20031;-88
2021/12/07 13:18:02;;;;;;;1.92;1.00;;;;;;;;;;5077337;28;20031;-88
2021/12/07 13:20:50;;;;;;;3.17;1.30;;;;;;;;;;5078149;28;20036;-89
2021/12/07 13:23:37;;;;;;;5.53;1.23;;;;;;;;;;5086055;28;20040;-89
2021/12/07 13:26:24;;;;;;;1.60;1.00;;;;;;;;;;5071445;28;20031;-89
2021/12/07 13:29:13;;;;;;;2.10;1.33;;;;;;;;;;5082097;28;20043;-85
2021/12/07 13:32:02;;;;;;;1.73;1.02;;;;;;;;;;5074271;28;20659;-86
2021/12/07 13:35:01;;;;;;;2.70;1.00;;;;;;;;;;5089256;28;20517;-85
2021/12/07 13:37:49;;;;;;;2.65;1.30;;;;;;;;;;5087041;28;20540;-85
2021/12/07 13:40:35;;;;;;;1.80;1.00;;;;;;;;;;5088789;28;20055;-85
2021/12/07 13:43:33;;;;;;;2.70;1.10;;;;;;;;;;5083004;28;20058;-85
2021/12/07 13:46:24;;;;;;;2.75;1.00;;;;;;;;;;5068805;28;20024;-87
2021/12/07 13:49:13;;;;;;;2.78;1.20;;;;;;;;;;5077845;28;20032;-86
2021/12/07 13:52:00;;;;;;;1.77;1.10;;;;;;;;;;5063993;28;20038;-84
2021/12/07 13:54:49;;;;;;;3.55;1.23;;;;;;;;;;5079697;28;20419;-85
2021/12/07 13:57:37;;;;;;;1.67;1.00;;;;;;;;;;5084469;28;20124;-84
2021/12/07 14:00:28;;;;;;;2.08;1.30;;;;;;;;;;5080663;28;20033;-83
2021/12/07 14:03:15;;;;;;;1.45;0.85;;;;;;;;;;5083104;28;20060;-84
2021/12/07 14:06:02;;;;;;;4.07;1.25;;;;;;;;;;5071775;28;20075;-84
2021/12/07 14:08:49;;;;;;;2.83;1.20;;;;;;;;;;5084217;28;20070;-86
2021/12/07 14:11:37;;;;;;;3.92;1.75;;;;;;;;;;5086969;28;20028;-84
2021/12/07 14:14:24;;;;;;;3.05;1.17;;;;;;;;;;5086009;28;20038;-85
2021/12/07 14:17:11;;;;;;;2.63;1.20;;;;;;;;;;5083806;28;20024;-83
2021/12/07 14:19:57;;;;;;;2.38;1.15;;;;;;;;;;5072660;28;20055;-85
2021/12/07 14:22:47;;;;;;;2.40;1.15;;;;;;;;;;5072412;28;20419;-85
2021/12/07 14:25:44;;;;;;;3.33;1.10;;;;;;;;;;5079256;28;20034;-86
2021/12/07 14:28:33;;;;;;;2.03;1.10;;;;;;;;;;5098026;28;20036;-85
2021/12/07 14:31:27;;;;;;;3.13;1.13;;;;;;;;;;5100505;28;20054;-87
2021/12/07 14:34:20;;;;;;;2.10;1.23;;;;;;;;;;5083152;28;20244;-88
2021/12/07 14:37:08;;;;;;;1.73;1.23;;;;;;;;;;5104380;28;20032;-88
2021/12/07 14:39:54;;;;;;;4.10;1.23;;;;;;;;;;5085618;28;20025;-83
2021/12/07 14:42:41;;;;;;;3.10;1.15;;;;;;;;;;5090361;28;20028;-84
2021/12/07 14:45:28;;;;;;;2.30;1.10;;;;;;;;;;5106566;28;20040;-84
2021/12/07 14:48:14;;;;;;;2.55;1.00;;;;;;;;;;5105986;28;20024;-82
2021/12/07 14:51:02;;;;;;;2.13;1.20;;;;;;;;;;5097644;28;20031;-84
2021/12/07 14:53:51;;;;;;;3.03;1.10;;;;;;;;;;5107854;28;20035;-88
2021/12/07 14:56:40;;;;;;;2.63;1.20;;;;;;;;;;5109722;28;20028;-92
2021/12/07 14:59:26;;;;;;;3.30;1.05;;;;;;;;;;5099204;28;20039;-91
2021/12/07 15:02:13;;;;;;;2.08;1.20;;;;;;;;;;5096413;28;20032;-84
2021/12/07 15:05:01;;;;;;;4.03;1.20;;;;;;;;;;5090203;28;20520;-86
2021/12/07 15:07:48;;;;;;;2.55;1.40;;;;;;;;;;5092698;28;20024;-88
2021/12/07 15:10:35;;;;;;;1.60;1.00;;;;;;;;;;5076228;28;20490;-86
2021/12/07 15:13:25;;;;;;;2.25;1.20;;;;;;;;;;5088119;28;20032;-87
2021/12/07 15:16:13;;;;;;;3.45;1.20;;;;;;;;;;5086460;28;20028;-86
2021/12/07 15:19:01;;;;;;;3.20;1.27;;;;;;;;;;5081199;28;20032;-87
2021/12/07 15:21:48;;;;;;;1.60;0.90;;;;;;;;;;5089344;28;20025;-85
2021/12/07 15:24:36;;;;;;;2.10;1.00;;;;;;;;;;5086041;28;20040;-87
2021/12/07 15:27:23;;;;;;;1.80;1.02;;;;;;;;;;5084273;28;20047;-85
2021/12/07 15:30:10;;;;;;;4.00;1.42;;;;;;;;;;5080188;28;20033;-85
2021/12/07 15:32:56;;;;;;;3.67;1.60;;;;;;;;;;5081737;28;20036;-85
2021/12/07 15:35:44;;;;;;;5.50;1.80;;;;;;;;;;5079822;28;20042;-85
2021/12/07 15:38:31;;;;;;;4.35;1.95;;;;;;;;;;5077576;28;21210;-81
2021/12/07 15:41:17;;;;;;;4.78;2.30;;;;;;;;;;5090233;28;20046;-86
2021/12/07 15:44:05;;;;;;;4.30;1.90;;;;;;;;;;5075746;28;20032;-86
2021/12/07 15:46:57;;;;;;;7.38;1.90;;;;;;;;;;5089446;28;20028;-84
2021/12/07 15:49:48;;;;;;;4.13;1.65;;;;;;;;;;5087798;28;20036;-87
2021/12/07 15:52:37;;;;;;;6.50;1.98;;;;;;;;;;5091211;28;20036;-88
2021/12/07 15:55:25;;;;;;;4.20;2.30;;;;;;;;;;5086884;28;20028;-86
2021/12/07 15:58:17;;;;;;;5.00;2.30;;;;;;;;;;5093224;28;20196;-89
2021/12/07 16:01:06;;;;;;;4.50;1.90;;;;;;;;;;5074247;28;20035;-86
2021/12/07 16:03:56;;;;;;;4.20;2.10;;;;;;;;;;5089355;28;20055;-87
2021/12/07 16:06:46;;;;;;;3.88;1.70;;;;;;;;;;5091629;28;20059;-88
2021/12/07 16:09:33;;;;;;;4.13;2.17;;;;;;;;;;5090453;28;20046;-88
2021/12/07 16:12:20;;;;;;;5.30;1.88;;;;;;;;;;5091703;28;20027;-87
2021/12/07 16:15:11;;;;;;;3.55;1.50;;;;;;;;;;5092063;28;20044;-88
2021/12/07 16:18:01;;;;;;;8.07;2.25;;;;;;;;;;5093519;28;20034;-87
2021/12/07 16:20:48;;;;;;;4.18;1.92;;;;;;;;;;5099111;28;20044;-88
2021/12/07 16:23:37;;;;;;;4.88;1.85;;;;;;;;;;5084523;28;20038;-82
2021/12/07 16:26:24;;;;;;;12.68;3.83;;;;;;;;;;5092072;28;20042;-86
2021/12/07 16:29:10;;;;;;;10.15;3.67;;;;;;;;;;5096965;28;20033;-84
2021/12/07 16:32:01;;;;;;;12.25;3.10;;;;;;;;;;5087217;28;20044;-84
2021/12/07 16:34:48;;;;;;;10.30;3.10;;;;;;;;;;5101869;28;20225;-86
2021/12/07 16:37:34;;;;;;;4.85;2.17;;;;;;;;;;5105333;28;20039;-88
2021/12/07 16:40:22;;;;;;;7.85;3.08;;;;;;;;;;5109331;28;20020;-88
2021/12/07 16:43:08;;;;;;;5.50;2.45;;;;;;;;;;5102713;28;20028;-88
2021/12/07 16:45:55;;;;;;;9.98;2.78;;;;;;;;;;5112279;28;20032;-88
2021/12/07 16:48:42;;;;;;;4.40;1.90;;;;;;;;;;5083610;28;20024;-88
2021/12/07 16:51:30;;;;;;;7.80;2.83;;;;;;;;;;5097510;28;20035;-89
2021/12/07 16:54:19;;;;;;;5.03;2.40;;;;;;;;;;5089002;28;20035;-88
2021/12/07 16:57:06;;;;;;;5.55;1.80;;;;;;;;;;5095454;28;20032;-87
2021/12/07 16:59:53;;;;;;;5.20;1.67;;;;;;;;;;5089326;28;20024;-87
2021/12/07 17:02:40;;;;;;;5.60;2.05;;;;;;;;;;5073570;28;20028;-86
2021/12/07 17:05:37;;;;;;;4.85;1.92;;;;;;;;;;5090721;28;20050;-87
2021/12/07 17:08:24;;;;;;;7.15;2.10;;;;;;;;;;5087150;28;20039;-88
2021/12/07 17:11:12;;;;;;;8.32;2.90;;;;;;;;;;5088660;28;20517;-87
2021/12/07 17:13:59;;;;;;;8.73;2.47;;;;;;;;;;5079403;28;20033;-87
2021/12/07 17:16:46;;;;;;;7.18;3.08;;;;;;;;;;5099571;28;20478;-88
2021/12/07 17:19:32;;;;;;;9.60;2.90;;;;;;;;;;5078811;28;20035;-87
2021/12/07 17:22:19;;;;;;;7.63;2.45;;;;;;;;;;5094667;28;20471;-87
2021/12/07 17:25:07;;;;;;;9.38;2.80;;;;;;;;;;5093028;28;20035;-88
2021/12/07 17:27:56;;;;;;;7.85;2.50;;;;;;;;;;5095081;28;20032;-87
2021/12/07 17:30:43;;;;;;;13.45;3.22;;;;;;;;;;5084688;28;20040;-88
2021/12/07 17:33:30;;;;;;;7.70;2.78;;;;;;;;;;5098873;28;20044;-88
2021/12/07 17:36:17;;;;;;;10.75;2.47;;;;;;;;;;5085315;28;20037;-88
2021/12/07 17:39:09;;;;;;;11.43;3.00;;;;;;;;;;5088678;28;20032;-88
2021/12/07 17:41:55;;;;;;;10.20;2.70;;;;;;;;;;5102643;28;20024;-89
2021/12/07 17:44:42;;;;;;;5.88;2.63;;;;;;;;;;5089911;28;20040;-89
2021/12/07 17:47:29;;;;;;;8.45;3.13;;;;;;;;;;5106568;28;20020;-89
2021/12/07 17:50:16;;;;;;;4.22;1.50;;;;;;;;;;5099023;28;20032;-87
2021/12/07 17:53:10;;;;;;;11.05;2.80;;;;;;;;;;5096460;28;20020;-85
2021/12/07 17:55:57;;;;;;;8.13;3.15;;;;;;;;;;5104133;28;20035;-86
2021/12/07 17:58:46;;;;;;;8.07;2.53;;;;;;;;;;5080054;28;20042;-86
2021/12/07 18:01:32;;;;;;;9.80;2.63;;;;;;;;;;5099730;28;20581;-88
2021/12/07 18:04:19;;;;;;;11.20;3.08;;;;;;;;;;5103647;28;20046;-87
2021/12/07 18:07:06;;;;;;;5.28;2.10;;;;;;;;;;5081858;28;20411;-86
2021/12/07 18:09:52;;;;;;;6.15;2.50;;;;;;;;;;5087691;28;20028;-86
2021/12/07 18:12:39;;;;;;;9.00;2.72;;;;;;;;;;5099406;28;20032;-86
2021/12/07 18:15:27;;;;;;;8.80;2.15;;;;;;;;;;5093207;28;20028;-88
2021/12/07 18:18:13;;;;;;;8.05;2.67;;;;;;;;;;5100783;28;20113;-85
2021/12/07 18:21:00;;;;;;;6.70;2.47;;;;;;;;;;5104562;28;20029;-87
2021/12/07 18:23:47;;;;;;;11.30;2.28;;;;;;;;;;5065160;28;20029;-85
2021/12/07 18:26:33;;;;;;;6.38;1.83;;;;;;;;;;5088151;28;20025;-86
2021/12/07 18:29:20;;;;;;;4.90;1.77;;;;;;;;;;5086095;28;20032;-86
2021/12/07 18:32:07;;;;;;;6.10;2.30;;;;;;;;;;5090789;28;20067;-86
2021/12/07 18:34:53;;;;;;;5.63;2.17;;;;;;;;;;5094225;28;20036;-85